Nelson, NE (68961)

4:08 PM CDT on September 04, 2015 (GMT -0500)
Ne Nelson | | Change Station
CLOSE
Current Station
Personal Weather Station
Location: Nelson, NE
Elevation: 1709 ft
Nearby Weather Stations

Elev 1709 ft 40.21 °N, 98.06 °W | Updated 6 minutes ago

Clear
Clear
94.1 °F
Feels Like 98 °F
N
8.9
Wind Variable Wind from WNW

Today
High -- | Low -- °F
--% Chance of Precip.
Yesterday
High -- | Low -- °F
Precip. -- in
7:02 AM 7:59 PM
Waning Gibbous, 56% visible
Pressure 29.85 in
Visibility 10.0 miles
Clouds Clear
Heat Index 98 °F
Dew Point 67 °F
Humidity 41%
Rainfall 0.00 in
Snow Depth Not available.
UV 6 out of 12
Pollen 11.20 out of 12
Air Quality Not available.
Flu Activity Not available.
METAR KHJH 042055Z AUTO 17017G24KT 10SM CLR 33/17 A2985 RMK AO2 T03310165
Pressure 29.85 in
Visibility 10.0 miles
Clouds Clear
Heat Index 98 °F
Dew Point 67 °F
Humidity 41%
Rainfall 0.00 in
Snow Depth Not available.
UV 6 out of 12
Pollen 11.20 out of 12
Air Quality Not available.
Flu Activity Not available.
METAR KHJH 042055Z AUTO 17017G24KT 10SM CLR 33/17 A2985 RMK AO2 T03310165

10-Day Weather Forecast

×

Almanac

Astronomy

Sep. 04, 2015 Rise Set
Actual Time
Civil Twilight
Nautical Twilight
Astronomical Twilight
Moon
Length of Visible Light
Length of Day
Tomorrow will be .
, % of the Moon is Illuminated

Today's Extremes

State Highs State Lows

Community

WunderPhotos

Upload Photos

1,852,290 photos uploaded!

WunderBlogs® & News

Nearby

Air Quality

  Air Quality AQ Index Pollutant
Not available.

Snow Depth

Station Depth Elevation

Earthquake Activity

City Distance Mag. Time & Date
Minimum magnitude displayed is 2.5.

Coastal Water Temperatures

Place Temperature

Stations

Nearby Weather Stations

Station Location Temp. Windchill Dew Point Humidity Wind Precip. Elev Updated Type